Marshall Foss — WDB9762 — position and weather

sailwx.info

Track history (hours):
 
Tides and Currents Weather Stations Pressure Air Temp Water Temp Dewpoint Dewpoint Depression Visibility Wind Speed Wind Dir Waves Ship Positions

Marshall Foss

Owner: Foss Maritime Company, Seattle, WA. More information available from US FCC via Universal Licensing System and Coast Guard Vessel Documentation Center.

Last reported at 2017-Oct-19 16:31 UTC. Time now 2017-Oct-19 16:54 UTC.
Position N 47°28' W 122°25'.

Length 27 m; draft 5.4 m.

Type: Tug. MMSI: 366982320.

Date/timePositionNaut miles runAvg speedWind from/ knotsBaromVisibWave heightAir tempDewpointWater temp
2017-Oct-19 16:31N 47°28' W 122°25'3 6.6
2017-Oct-19 16:01N 47°31' W 122°27'3 6.4
2017-Oct-19 15:31N 47°34' W 122°28'3 6.0
2017-Oct-19 15:00N 47°37' W 122°28'3 6.1
2017-Oct-19 14:31N 47°40' W 122°28'3 6.1
2017-Oct-19 14:01N 47°43' W 122°27'3 6.2
2017-Oct-19 13:30N 47°46' W 122°27'3 5.7
2017-Oct-19 13:01N 47°49' W 122°25'12 6.3
2017-Oct-19 11:07N 47°59' W 122°14'0 1.3
2017-Oct-19 11:00N 47°59' W 122°14'1 1.3
2017-Oct-19 10:31N 47°59' W 122°13'1 1.7
2017-Oct-19 09:58N 47°58' W 122°15'5 9.8
2017-Oct-19 09:31N 47°56' W 122°20'510.6
2017-Oct-19 09:01N 47°51' W 122°23'510.4
2017-Oct-19 08:30N 47°46' W 122°25'510.4
2017-Oct-19 08:01N 47°41' W 122°27'4 8.5
2017-Oct-19 07:30N 47°37' W 122°24'1 2.0
2017-Oct-19 07:00N 47°38' W 122°23'0 0.0
2017-Oct-19 06:31N 47°38' W 122°23'0 0.0
2017-Oct-19 06:01N 47°38' W 122°23'0 0.0
2017-Oct-19 05:31N 47°38' W 122°23'0 0.0
2017-Oct-19 05:01N 47°38' W 122°23'0 0.0
2017-Oct-19 04:31N 47°38' W 122°23'0 0.0
2017-Oct-19 04:01N 47°38' W 122°23'0 0.0
2017-Oct-19 03:31N 47°38' W 122°23'0 0.0
2017-Oct-19 03:01N 47°38' W 122°23'0 0.0
2017-Oct-19 02:31N 47°38' W 122°23'0 0.0
2017-Oct-19 02:01N 47°38' W 122°23'0 0.3
2017-Oct-19 01:31N 47°38' W 122°23'3 6.4
2017-Oct-19 01:00N 47°35' W 122°21'1 1.3
2017-Oct-19 00:30N 47°36' W 122°21'1 2.5
2017-Oct-19 00:01N 47°36' W 122°22'510.0
2017-Oct-18 23:31N 47°31' W 122°25'612.2
2017-Oct-18 23:00N 47°25' W 122°23'611.1
2017-Oct-18 22:31N 47°20' W 122°25'4 8.5
2017-Oct-18 22:00N 47°16' W 122°24'1 2.1
2017-Oct-18 21:30N 47°15' W 122°23'1 1.8
2017-Oct-18 21:01N 47°16' W 122°24'2 4.0
2017-Oct-18 20:30N 47°17' W 122°26'0 0.8
2017-Oct-18 20:00N 47°18' W 122°26'0 0.4
2017-Oct-18 19:30N 47°18' W 122°26'0 0.0
2017-Oct-18 19:00N 47°18' W 122°26'0 0.0
2017-Oct-18 18:27N 47°18' W 122°26'0 0.0
2017-Oct-18 18:00N 47°18' W 122°26'0 0.0
2017-Oct-18 17:24N 47°18' W 122°26'0 0.0
2017-Oct-18 16:54N 47°18' W 122°26'0 0.0
2017-Oct-18 16:18N 47°18' W 122°26'0 0.0
2017-Oct-18 15:54N 47°18' W 122°26'0 0.0
2017-Oct-18 15:30N 47°18' W 122°26'0 0.0
2017-Oct-18 14:54N 47°18' W 122°26'0 0.0
2017-Oct-18 14:00N 47°18' W 122°26'4 7.2
2017-Oct-18 13:30N 47°21' W 122°24'4 8.6
2017-Oct-18 13:00N 47°25' W 122°24'510.5
2017-Oct-18 12:30N 47°31' W 122°26'510.0
2017-Oct-18 12:00N 47°35' W 122°25'3 6.5
2017-Oct-18 11:30N 47°34' W 122°21'1 2.1
2017-Oct-18 11:00N 47°33' W 122°20'1 1.3
2017-Oct-18 10:30N 47°34' W 122°21'1 2.2
2017-Oct-18 10:00N 47°35' W 122°22'1 2.1
2017-Oct-18 09:30N 47°36' W 122°22'0 1.0
2017-Oct-18 09:00N 47°36' W 122°22'1 1.7
2017-Oct-18 08:30N 47°36' W 122°21'2 4.2
2017-Oct-18 08:00N 47°38' W 122°23'0 0.0
2017-Oct-18 07:29N 47°38' W 122°23'0 0.0
2017-Oct-18 06:59N 47°38' W 122°23'0 0.0
2017-Oct-18 06:29N 47°38' W 122°23'0 0.0
2017-Oct-18 05:59N 47°38' W 122°23'0 0.0
2017-Oct-18 05:29N 47°38' W 122°23'0 0.0
2017-Oct-18 04:59N 47°38' W 122°23'0 0.0
2017-Oct-18 04:29N 47°38' W 122°23'0 0.0
2017-Oct-18 03:59N 47°38' W 122°23'0 0.0
2017-Oct-18 03:29N 47°38' W 122°23'0 0.0
2017-Oct-18 02:59N 47°38' W 122°23'0 0.0
2017-Oct-18 02:29N 47°38' W 122°23'0 0.0
2017-Oct-18 01:59N 47°38' W 122°23'0 0.0
2017-Oct-18 01:29N 47°38' W 122°23'0 0.0
2017-Oct-18 00:59N 47°38' W 122°23'0 0.0
2017-Oct-18 00:29N 47°38' W 122°23'0 0.0
2017-Oct-17 23:59N 47°38' W 122°23'0 0.0
2017-Oct-17 23:29N 47°38' W 122°23'0 0.0
2017-Oct-17 23:00N 47°38' W 122°23'3 5.5
2017-Oct-17 22:30N 47°36' W 122°21'0 0.6
2017-Oct-17 22:00N 47°35' W 122°21'0 1.0
2017-Oct-17 21:31N 47°36' W 122°21'1 2.5
2017-Oct-17 21:00N 47°37' W 122°22'0 0.9
2017-Oct-17 20:30N 47°37' W 122°23'1 2.2
2017-Oct-17 20:00N 47°38' W 122°23'0 0.0
2017-Oct-17 19:30N 47°38' W 122°23'0 0.0
2017-Oct-17 19:00N 47°38' W 122°23'0 0.0
2017-Oct-17 18:30N 47°38' W 122°23'1 1.1
2017-Oct-17 18:00N 47°37' W 122°22'0 0.0
2017-Oct-17 17:30N 47°37' W 122°22'1 1.8
2017-Oct-17 17:00N 47°37' W 122°23'1 2.6
2017-Oct-17 16:30N 47°38' W 122°23'0 0.0
2017-Oct-17 16:00N 47°38' W 122°23'0 0.0
2017-Oct-17 15:30N 47°38' W 122°23'1 1.3
2017-Oct-17 15:00N 47°37' W 122°22'1 1.2
2017-Oct-17 14:29N 47°38' W 122°23'0 0.0
2017-Oct-17 13:58N 47°38' W 122°23'0 0.0
2017-Oct-17 13:28N 47°38' W 122°23'0 0.0
2017-Oct-17 12:58N 47°38' W 122°23'0 0.0
2017-Oct-17 12:28N 47°38' W 122°23'0 0.0
2017-Oct-17 12:01N 47°38' W 122°23'2 5.0
2017-Oct-17 11:31N 47°36' W 122°21'1 1.8
2017-Oct-17 11:01N 47°35' W 122°21'1 2.4
2017-Oct-17 10:31N 47°36' W 122°21'2 4.0
2017-Oct-17 09:58N 47°38' W 122°23'0 0.0
2017-Oct-17 09:28N 47°38' W 122°23'0 0.0
2017-Oct-17 08:58N 47°38' W 122°23'0 0.0
2017-Oct-17 08:28N 47°38' W 122°23'0 0.0
2017-Oct-17 07:58N 47°38' W 122°23'0 0.0
2017-Oct-17 07:28N 47°38' W 122°23'0 0.0
2017-Oct-17 06:59N 47°38' W 122°23'0 0.0
2017-Oct-17 06:28N 47°38' W 122°23'0 0.0
2017-Oct-17 05:59N 47°38' W 122°23'0 0.0
2017-Oct-17 05:28N 47°38' W 122°23'0 0.0
2017-Oct-17 04:58N 47°38' W 122°23'0 0.0
2017-Oct-17 04:28N 47°38' W 122°23'0 0.0
2017-Oct-17 03:58N 47°38' W 122°23'0 0.0
2017-Oct-17 03:16N 47°38' W 122°23'0 0.0
2017-Oct-17 02:58N 47°38' W 122°23'0 0.0
2017-Oct-17 02:28N 47°38' W 122°23'0 0.0
2017-Oct-17 01:58N 47°38' W 122°23'0 0.0
2017-Oct-17 01:29N 47°38' W 122°23'0 0.0
2017-Oct-17 00:58N 47°38' W 122°23'0 0.0
2017-Oct-17 00:28N 47°38' W 122°23'0 0.0
2017-Oct-16 23:58N 47°38' W 122°23'0 0.0
2017-Oct-16 23:30N 47°38' W 122°23'0 0.0
2017-Oct-16 22:58N 47°38' W 122°23'0 0.0
2017-Oct-16 22:28N 47°38' W 122°23'0 0.0
2017-Oct-16 21:59N 47°38' W 122°23'0 0.0
2017-Oct-16 21:28N 47°38' W 122°23'0 0.0
2017-Oct-16 21:00N 47°38' W 122°23'0 0.0
2017-Oct-16 20:29N 47°38' W 122°23'0 0.0
2017-Oct-16 19:58N 47°38' W 122°23'0 0.0
2017-Oct-16 19:28N 47°38' W 122°23'0 0.0
2017-Oct-16 18:58N 47°38' W 122°23'0 0.0
2017-Oct-16 18:29N 47°38' W 122°23'0 0.0
2017-Oct-16 17:58N 47°38' W 122°23'0 0.0
2017-Oct-16 17:28N 47°38' W 122°23'0 0.0
2017-Oct-16 16:58N 47°38' W 122°23'0 0.0
2017-Oct-16 16:28N 47°38' W 122°23'0 0.0
2017-Oct-16 15:58N 47°38' W 122°23'0 0.0
2017-Oct-16 15:28N 47°38' W 122°23'0 0.0
2017-Oct-16 14:58N 47°38' W 122°23'0 0.0
2017-Oct-16 14:28N 47°38' W 122°23'0 0.0
2017-Oct-16 13:30N 47°38' W 122°23'3 5.9
2017-Oct-16 13:00N 47°35' W 122°21'0 0.9
2017-Oct-16 12:30N 47°35' W 122°21'1 2.8
2017-Oct-16 12:01N 47°36' W 122°21'1 1.5
2017-Oct-16 11:30N 47°37' W 122°22'1 2.4
2017-Oct-16 10:58N 47°38' W 122°23'0 0.0
2017-Oct-16 10:28N 47°38' W 122°23'0 0.0
2017-Oct-16 09:58N 47°38' W 122°23'0 0.0
2017-Oct-16 09:28N 47°38' W 122°23'0 0.0
2017-Oct-16 09:00N 47°38' W 122°23'0 0.0
2017-Oct-16 08:29N 47°38' W 122°23'0 0.0
2017-Oct-16 07:59N 47°38' W 122°23'0 0.0
2017-Oct-16 07:29N 47°38' W 122°23'0 0.0
2017-Oct-16 06:58N 47°38' W 122°23'0 0.0
2017-Oct-16 06:28N 47°38' W 122°23'0 0.0
2017-Oct-16 05:58N 47°38' W 122°23'0 0.0
2017-Oct-16 05:30N 47°38' W 122°23'0 0.0
2017-Oct-16 04:58N 47°38' W 122°23'0 0.0
2017-Oct-16 04:28N 47°38' W 122°23'0 0.0
2017-Oct-16 03:59N 47°38' W 122°23'0 0.0
2017-Oct-16 03:28N 47°38' W 122°23'0 0.0
2017-Oct-16 02:59N 47°38' W 122°23'0 0.0
2017-Oct-16 02:28N 47°38' W 122°23'0 0.0
2017-Oct-16 01:58N 47°38' W 122°23'0 0.0
2017-Oct-16 01:28N 47°38' W 122°23'0 0.0
2017-Oct-16 00:58N 47°38' W 122°23'0 0.0
2017-Oct-16 00:28N 47°38' W 122°23'0 0.0
2017-Oct-15 23:58N 47°38' W 122°23'0 0.0
2017-Oct-15 23:29N 47°38' W 122°23'0 0.0
2017-Oct-15 22:59N 47°38' W 122°23'0 0.0
2017-Oct-15 22:29N 47°38' W 122°23'0 0.0
2017-Oct-15 21:59N 47°38' W 122°23'0 0.0
2017-Oct-15 21:28N 47°38' W 122°23'0 0.0
2017-Oct-15 20:58N 47°38' W 122°23'0 0.0
2017-Oct-15 20:28N 47°38' W 122°23'0 0.0
2017-Oct-15 19:58N 47°38' W 122°23'0 0.0
2017-Oct-15 19:28N 47°38' W 122°23'0 0.0
2017-Oct-15 18:58N 47°38' W 122°23'0 0.0
2017-Oct-15 18:28N 47°38' W 122°23'0 0.0
2017-Oct-15 17:58N 47°38' W 122°23'0 0.0
2017-Oct-15 17:28N 47°38' W 122°23'0 0.0
2017-Oct-15 16:58N 47°38' W 122°23'0 0.0
2017-Oct-15 16:28N 47°38' W 122°23'0 0.0
2017-Oct-15 15:58N 47°38' W 122°23'0 0.0
2017-Oct-15 15:28N 47°38' W 122°23'0 0.0
2017-Oct-15 14:59N 47°38' W 122°23'0 0.0
2017-Oct-15 14:01N 47°38' W 122°23'0 0.0
2017-Oct-15 13:31N 47°38' W 122°23'0 0.0
2017-Oct-15 13:01N 47°38' W 122°23'0 0.0
2017-Oct-15 12:30N 47°38' W 122°23'0 0.0
2017-Oct-15 12:01N 47°38' W 122°23'0 0.0
2017-Oct-15 11:30N 47°38' W 122°23'0 0.0
2017-Oct-15 11:01N 47°38' W 122°23'0 0.0
2017-Oct-15 10:31N 47°38' W 122°23'0 0.0
2017-Oct-15 10:01N 47°38' W 122°23'0 0.0
2017-Oct-15 09:31N 47°38' W 122°23'0 0.0
2017-Oct-15 09:01N 47°38' W 122°23'0 0.0
2017-Oct-15 08:31N 47°38' W 122°23'0 0.0
2017-Oct-15 08:01N 47°38' W 122°23'0 0.0
2017-Oct-15 07:30N 47°38' W 122°23'0 0.0
2017-Oct-15 07:01N 47°38' W 122°23'0 0.0
2017-Oct-15 06:31N 47°38' W 122°23'1 1.1
2017-Oct-15 06:01N 47°37' W 122°22'0 0.0
2017-Oct-15 05:30N 47°37' W 122°22'1 1.1
2017-Oct-15 05:01N 47°37' W 122°22'0 0.8
2017-Oct-15 04:30N 47°37' W 122°22'0 0.2
2017-Oct-15 04:00N 47°37' W 122°22'0 0.0
2017-Oct-15 03:31N 47°37' W 122°22'0 0.2
2017-Oct-15 03:01N 47°37' W 122°22'4 8.3
2017-Oct-15 02:31N 47°34' W 122°26'611.0
2017-Oct-15 02:01N 47°29' W 122°24'612.2
2017-Oct-15 01:31N 47°23' W 122°22'611.8
2017-Oct-15 01:00N 47°18' W 122°27'3 6.4
2017-Oct-15 00:31N 47°16' W 122°23'1 1.3
2017-Oct-15 00:00N 47°15' W 122°23'1 1.6
2017-Oct-14 23:31N 47°16' W 122°23'0 0.8
2017-Oct-14 23:01N 47°16' W 122°24'0 0.0
2017-Oct-14 22:31N 47°16' W 122°24'0 0.0
2017-Oct-14 22:01N 47°16' W 122°24'0 0.0
2017-Oct-14 21:31N 47°16' W 122°24'1 1.3
2017-Oct-14 21:00N 47°17' W 122°25'1 1.2
2017-Oct-14 20:30N 47°16' W 122°24'0 0.1
2017-Oct-14 20:00N 47°16' W 122°24'0 0.0
2017-Oct-14 19:30N 47°16' W 122°24'0 0.0
2017-Oct-14 19:00N 47°16' W 122°24'0 0.0
2017-Oct-14 18:31N 47°16' W 122°24'0 0.0
2017-Oct-14 18:01N 47°16' W 122°24'0 0.0
2017-Oct-14 17:30N 47°16' W 122°24'0 0.0
2017-Oct-14 17:00N 47°16' W 122°24'1 1.4
2017-Oct-14 16:30N 47°17' W 122°25'1 1.4
2017-Oct-14 16:01N 47°16' W 122°24'0 0.0
2017-Oct-14 15:28N 47°16' W 122°24'0 0.0
2017-Oct-14 14:58N 47°16' W 122°24'0 0.0
2017-Oct-14 14:28N 47°16' W 122°24'0 0.0
2017-Oct-14 13:58N 47°16' W 122°24'0 0.0
2017-Oct-14 13:28N 47°16' W 122°24'0 0.0
2017-Oct-14 12:58N 47°16' W 122°24'0 0.0
2017-Oct-14 12:28N 47°16' W 122°24'0 0.0
2017-Oct-14 11:58N 47°16' W 122°24'0 0.0
2017-Oct-14 11:28N 47°16' W 122°24'0 0.0
2017-Oct-14 10:58N 47°16' W 122°24'0 0.0
2017-Oct-14 10:28N 47°16' W 122°24'0 0.0
2017-Oct-14 09:58N 47°16' W 122°24'0 0.1
2017-Oct-14 09:31N 47°16' W 122°24'1 1.5
2017-Oct-14 09:00N 47°16' W 122°25'0 0.1
2017-Oct-14 08:30N 47°16' W 122°25'0 0.0
2017-Oct-14 08:00N 47°16' W 122°25'0 0.0
2017-Oct-14 07:30N 47°16' W 122°25'2 3.1
2017-Oct-14 07:00N 47°18' W 122°26'1 2.3
2017-Oct-14 06:30N 47°17' W 122°25'1 2.5
2017-Oct-14 06:00N 47°18' W 122°26'0 0.3
2017-Oct-14 05:23N 47°18' W 122°26'0 0.0
2017-Oct-14 04:53N 47°18' W 122°26'0 0.0
2017-Oct-14 04:29N 47°18' W 122°26'0 0.0
2017-Oct-14 04:00N 47°18' W 122°26'0 0.0
2017-Oct-14 03:30N 47°18' W 122°26'0 0.0
2017-Oct-14 02:59N 47°18' W 122°26'0 0.4
2017-Oct-14 02:31N 47°18' W 122°26'4 7.2
2017-Oct-14 02:00N 47°21' W 122°25'4 8.0
2017-Oct-14 01:30N 47°25' W 122°23'5 9.8
2017-Oct-14 01:01N 47°30' W 122°24'5 9.8
2017-Oct-14 00:30N 47°35' W 122°25'3 6.7
2017-Oct-14 00:00N 47°36' W 122°21'0 0.6
2017-Oct-13 23:28N 47°36' W 122°20'0 0.1
2017-Oct-13 23:01N 47°36' W 122°20'3 6.3
2017-Oct-13 22:31N 47°35' W 122°25'5 9.2
2017-Oct-13 22:01N 47°31' W 122°25'5 9.4
2017-Oct-13 21:31N 47°26' W 122°23'4 8.7
2017-Oct-13 21:00N 47°22' W 122°22'5 9.4
2017-Oct-13 20:31N 47°18' W 122°27'1 2.4
2017-Oct-13 20:00N 47°18' W 122°26'0 0.0
2017-Oct-13 19:30N 47°18' W 122°26'0 0.0
2017-Oct-13 19:01N 47°18' W 122°26'0 0.1
2017-Oct-13 18:31N 47°18' W 122°26'2 3.0
2017-Oct-13 18:00N 47°17' W 122°24'2 3.3
2017-Oct-13 17:31N 47°16' W 122°22'2 3.2
2017-Oct-13 17:00N 47°17' W 122°24'1 1.3
2017-Oct-13 16:31N 47°16' W 122°24'1 2.1
2017-Oct-13 16:01N 47°15' W 122°23'0 0.1
2017-Oct-13 15:31N 47°15' W 122°23'1 2.2
2017-Oct-13 14:59N 47°16' W 122°24'0 0.0
2017-Oct-13 14:29N 47°16' W 122°24'0 0.0
2017-Oct-13 13:59N 47°16' W 122°24'0 0.0
2017-Oct-13 13:29N 47°16' W 122°24'0 0.0
2017-Oct-13 12:59N 47°16' W 122°24'0 0.0
2017-Oct-13 12:29N 47°16' W 122°24'0 0.0
2017-Oct-13 11:59N 47°16' W 122°24'1 1.3
2017-Oct-13 11:30N 47°16' W 122°23'0 0.7
2017-Oct-13 11:00N 47°16' W 122°23'2 3.9
2017-Oct-13 10:30N 47°17' W 122°25'1 2.1
2017-Oct-13 10:00N 47°18' W 122°26'0 0.6
2017-Oct-13 09:30N 47°18' W 122°26'0 0.0
2017-Oct-13 09:00N 47°18' W 122°26'0 0.0
2017-Oct-13 08:30N 47°18' W 122°26'0 0.0
2017-Oct-13 08:00N 47°18' W 122°26'0 0.0
2017-Oct-13 07:30N 47°18' W 122°26'0 0.0
2017-Oct-13 07:00N 47°18' W 122°26'0 0.0
2017-Oct-13 06:30N 47°18' W 122°26'0 0.0
2017-Oct-13 06:00N 47°18' W 122°26'0 0.0
2017-Oct-13 05:30N 47°18' W 122°26'0 0.0
2017-Oct-13 05:00N 47°18' W 122°26'0 0.0
2017-Oct-13 04:30N 47°18' W 122°26'0 0.1
2017-Oct-13 04:01N 47°18' W 122°26'1 2.9
2017-Oct-13 03:31N 47°18' W 122°28'4 7.2
2017-Oct-13 03:00N 47°21' W 122°25'3 6.7
2017-Oct-13 02:30N 47°24' W 122°23'4 7.9
2017-Oct-13 02:00N 47°28' W 122°25'4 7.7
2017-Oct-13 01:30N 47°32' W 122°26'4 7.6
2017-Oct-13 01:00N 47°35' W 122°25'3 5.1
2017-Oct-13 00:30N 47°38' W 122°25'2 3.9
2017-Oct-13 00:00N 47°40' W 122°27'4 7.4
2017-Oct-12 23:30N 47°43' W 122°26'4 7.5
2017-Oct-12 23:00N 47°47' W 122°25'4 7.4
2017-Oct-12 22:30N 47°51' W 122°24'4 8.0
2017-Oct-12 22:00N 47°54' W 122°21'4 8.0
2017-Oct-12 21:30N 47°58' W 122°18'3 6.3
2017-Oct-12 21:00N 47°59' W 122°14'1 2.6
2017-Oct-12 20:29N 47°58' W 122°16'5 9.8
2017-Oct-12 20:00N 47°55' W 122°21'510.4
2017-Oct-12 19:30N 47°50' W 122°23'510.8
2017-Oct-12 19:00N 47°45' W 122°25'510.7
2017-Oct-12 18:30N 47°39' W 122°27'3 6.2
2017-Oct-12 18:00N 47°38' W 122°23'0 0.0
2017-Oct-12 17:30N 47°38' W 122°23'0 0.0
2017-Oct-12 16:59N 47°38' W 122°23'0 0.0
2017-Oct-12 16:30N 47°38' W 122°23'0 0.0
2017-Oct-12 16:00N 47°38' W 122°23'0 0.0
2017-Oct-12 15:30N 47°38' W 122°23'0 0.0
2017-Oct-12 15:00N 47°38' W 122°23'1 1.1
2017-Oct-12 14:30N 47°37' W 122°23'1 1.0
2017-Oct-12 13:59N 47°38' W 122°23'0 0.0
2017-Oct-12 13:29N 47°38' W 122°23'0 0.0
2017-Oct-12 12:58N 47°38' W 122°23'0 0.0
2017-Oct-12 12:28N 47°38' W 122°23'0 0.0
2017-Oct-12 11:59N 47°38' W 122°23'0 0.0
2017-Oct-12 11:29N 47°38' W 122°23'0 0.0
2017-Oct-12 10:58N 47°38' W 122°23'0 0.0
2017-Oct-12 10:29N 47°38' W 122°23'0 0.0
2017-Oct-12 09:58N 47°38' W 122°23'0 0.0
2017-Oct-12 09:29N 47°38' W 122°23'0 0.0
2017-Oct-12 08:58N 47°38' W 122°23'0 0.0
2017-Oct-12 08:29N 47°38' W 122°23'0 0.0
2017-Oct-12 07:59N 47°38' W 122°23'0 0.0
2017-Oct-12 07:28N 47°38' W 122°23'0 0.0
2017-Oct-12 06:58N 47°38' W 122°23'0 0.0
2017-Oct-12 06:29N 47°38' W 122°23'0 0.0
2017-Oct-12 05:59N 47°38' W 122°23'0 0.0
2017-Oct-12 05:29N 47°38' W 122°23'0 0.0
2017-Oct-12 04:58N 47°38' W 122°23'0 0.0
2017-Oct-12 04:28N 47°38' W 122°23'0 0.0
2017-Oct-12 03:59N 47°38' W 122°23'0 0.0
2017-Oct-12 03:29N 47°38' W 122°23'0 0.0
2017-Oct-12 02:59N 47°38' W 122°23'2 3.3
2017-Oct-12 02:30N 47°38' W 122°25'3 5.2
2017-Oct-12 02:01N 47°41' W 122°25'1 2.5
2017-Oct-12 01:30N 47°40' W 122°23'1 2.0
2017-Oct-12 01:01N 47°39' W 122°22'0 0.0
2017-Oct-12 00:30N 47°39' W 122°22'0 0.0
2017-Oct-12 00:00N 47°39' W 122°22'0 0.0
2017-Oct-11 23:30N 47°39' W 122°22'0 0.1
2017-Oct-11 23:00N 47°39' W 122°22'0 0.1
2017-Oct-11 22:30N 47°39' W 122°22'0 0.0
2017-Oct-11 22:00N 47°39' W 122°22'0 0.0
2017-Oct-11 21:30N 47°39' W 122°22'0 0.0
2017-Oct-11 21:00N 47°39' W 122°22'0 0.0
2017-Oct-11 20:30N 47°39' W 122°22'0 0.1
2017-Oct-11 20:00N 47°39' W 122°22'0 0.1
2017-Oct-11 19:30N 47°39' W 122°22'0 0.0
2017-Oct-11 19:00N 47°39' W 122°22'0 0.0
2017-Oct-11 18:30N 47°39' W 122°22'0 0.0
2017-Oct-11 18:00N 47°39' W 122°22'0 0.0
2017-Oct-11 17:30N 47°39' W 122°22'0 0.0
2017-Oct-11 17:00N 47°39' W 122°22'0 0.0
2017-Oct-11 00:00N 47°39' W 122°22'0 0.0
2017-Oct-10 23:30N 47°39' W 122°22'0 0.1
2017-Oct-10 23:00N 47°39' W 122°22'0 0.1
2017-Oct-10 22:28N 47°39' W 122°22'0 0.0
2017-Oct-10 22:00N 47°39' W 122°22'0 0.0
2017-Oct-10 21:30N 47°39' W 122°22'0 0.0
2017-Oct-10 20:57N 47°39' W 122°22'0 0.1
2017-Oct-10 20:30N 47°39' W 122°22'0 0.1
2017-Oct-10 20:00N 47°39' W 122°22'0 0.0
2017-Oct-10 19:30N 47°39' W 122°22'0 0.1
2017-Oct-10 19:00N 47°39' W 122°22'0 0.1
2017-Oct-10 18:30N 47°39' W 122°22'0 0.0
2017-Oct-10 18:00N 47°39' W 122°22'0 0.0
2017-Oct-10 17:30N 47°39' W 122°22'0 0.0
2017-Oct-10 17:00N 47°39' W 122°22'0 0.1
2017-Oct-10 16:30N 47°39' W 122°22'0 0.1
2017-Oct-10 16:00N 47°39' W 122°22'0 0.0
2017-Oct-10 15:30N 47°39' W 122°22'0 0.0
2017-Oct-10 15:00N 47°39' W 122°22'0 0.0
2017-Oct-10 14:00N 47°39' W 122°22'0 0.0
2017-Oct-10 13:30N 47°39' W 122°22'0 0.0
2017-Oct-10 13:00N 47°39' W 122°22'0 0.0
2017-Oct-10 12:30N 47°39' W 122°22'0 0.1
2017-Oct-10 12:00N 47°39' W 122°22'0 0.0
2017-Oct-10 11:30N 47°39' W 122°22'0 0.0
2017-Oct-10 11:00N 47°39' W 122°22'0 0.1
2017-Oct-10 10:30N 47°39' W 122°22'0 0.0
2017-Oct-10 10:00N 47°39' W 122°22'0 0.0
2017-Oct-10 09:30N 47°39' W 122°22'0 0.1
2017-Oct-10 09:00N 47°39' W 122°22'0 0.0
2017-Oct-10 08:30N 47°39' W 122°22'0 0.0
2017-Oct-10 08:00N 47°39' W 122°22'0 0.0
2017-Oct-10 07:30N 47°39' W 122°22'0 0.0
2017-Oct-10 06:57N 47°39' W 122°22'0 0.1
2017-Oct-10 06:30N 47°39' W 122°22'0 0.0
2017-Oct-10 06:00N 47°39' W 122°22'0 0.0
2017-Oct-10 05:30N 47°39' W 122°22'0 0.0
2017-Oct-10 05:00N 47°39' W 122°22'0 0.0
2017-Oct-10 04:30N 47°39' W 122°22'0 0.0
2017-Oct-10 04:00N 47°39' W 122°22'0 0.0
2017-Oct-10 03:30N 47°39' W 122°22'0 0.0
2017-Oct-10 03:00N 47°39' W 122°22'0 0.0
2017-Oct-10 02:30N 47°39' W 122°22'0 0.0
2017-Oct-10 02:00N 47°39' W 122°22'0 0.0
2017-Oct-10 01:30N 47°39' W 122°22'0 0.0
2017-Oct-10 00:57N 47°39' W 122°22'0 0.0
2017-Oct-10 00:30N 47°39' W 122°22'0 0.1
2017-Oct-10 00:00N 47°39' W 122°22'0 0.0
2017-Oct-09 23:30N 47°39' W 122°22'0 0.0
2017-Oct-09 23:00N 47°39' W 122°22'0 0.1
2017-Oct-09 22:30N 47°39' W 122°22'0 0.0
2017-Oct-09 22:00N 47°39' W 122°22'0 0.0
2017-Oct-09 21:30N 47°39' W 122°22'0 0.0
2017-Oct-09 20:58N 47°39' W 122°22'0 0.0
2017-Oct-09 20:30N 47°39' W 122°22'0 0.0
2017-Oct-09 20:00N 47°39' W 122°22'0 0.0
2017-Oct-09 19:27N 47°39' W 122°22'0 0.1
2017-Oct-09 19:00N 47°39' W 122°22'0 0.1
2017-Oct-09 18:30N 47°39' W 122°22'0 0.0
2017-Oct-09 18:00N 47°39' W 122°22'0 0.1
2017-Oct-09 17:30N 47°39' W 122°22'0 0.1
2017-Oct-09 17:00N 47°39' W 122°22'  
Track history (hours):
 
Tides and Currents Weather Stations Pressure Air Temp Water Temp Dewpoint Dewpoint Depression Visibility Wind Speed Wind Dir Waves Ship Positions

Marshall Foss

Owner: Foss Maritime Company, Seattle, WA. More information available from US FCC via Universal Licensing System and Coast Guard Vessel Documentation Center.

Last reported at 2017-Oct-19 16:31 UTC. Time now 2017-Oct-19 16:54 UTC.
Position N 47°28' W 122°25'.

Length 27 m; draft 5.4 m.

Type: Tug. MMSI: 366982320.

Date/timePositionNaut miles runAvg speedWind from/ knotsBaromVisibWave heightAir tempDewpointWater temp
2017-Oct-19 16:31N 47°28' W 122°25'3 6.6
2017-Oct-19 16:01N 47°31' W 122°27'3 6.4
2017-Oct-19 15:31N 47°34' W 122°28'3 6.0
2017-Oct-19 15:00N 47°37' W 122°28'3 6.1
2017-Oct-19 14:31N 47°40' W 122°28'3 6.1
2017-Oct-19 14:01N 47°43' W 122°27'3 6.2
2017-Oct-19 13:30N 47°46' W 122°27'3 5.7
2017-Oct-19 13:01N 47°49' W 122°25'12 6.3
2017-Oct-19 11:07N 47°59' W 122°14'0 1.3
2017-Oct-19 11:00N 47°59' W 122°14'1 1.3
2017-Oct-19 10:31N 47°59' W 122°13'1 1.7
2017-Oct-19 09:58N 47°58' W 122°15'5 9.8
2017-Oct-19 09:31N 47°56' W 122°20'510.6
2017-Oct-19 09:01N 47°51' W 122°23'510.4
2017-Oct-19 08:30N 47°46' W 122°25'510.4
2017-Oct-19 08:01N 47°41' W 122°27'4 8.5
2017-Oct-19 07:30N 47°37' W 122°24'1 2.0
2017-Oct-19 07:00N 47°38' W 122°23'0 0.0
2017-Oct-19 06:31N 47°38' W 122°23'0 0.0
2017-Oct-19 06:01N 47°38' W 122°23'0 0.0
2017-Oct-19 05:31N 47°38' W 122°23'0 0.0
2017-Oct-19 05:01N 47°38' W 122°23'0 0.0
2017-Oct-19 04:31N 47°38' W 122°23'0 0.0
2017-Oct-19 04:01N 47°38' W 122°23'0 0.0
2017-Oct-19 03:31N 47°38' W 122°23'0 0.0
2017-Oct-19 03:01N 47°38' W 122°23'0 0.0
2017-Oct-19 02:31N 47°38' W 122°23'0 0.0
2017-Oct-19 02:01N 47°38' W 122°23'0 0.3
2017-Oct-19 01:31N 47°38' W 122°23'3 6.4
2017-Oct-19 01:00N 47°35' W 122°21'1 1.3
2017-Oct-19 00:30N 47°36' W 122°21'1 2.5
2017-Oct-19 00:01N 47°36' W 122°22'510.0
2017-Oct-18 23:31N 47°31' W 122°25'612.2
2017-Oct-18 23:00N 47°25' W 122°23'611.1
2017-Oct-18 22:31N 47°20' W 122°25'4 8.5
2017-Oct-18 22:00N 47°16' W 122°24'1 2.1
2017-Oct-18 21:30N 47°15' W 122°23'1 1.8
2017-Oct-18 21:01N 47°16' W 122°24'2 4.0
2017-Oct-18 20:30N 47°17' W 122°26'0 0.8
2017-Oct-18 20:00N 47°18' W 122°26'0 0.4
2017-Oct-18 19:30N 47°18' W 122°26'0 0.0
2017-Oct-18 19:00N 47°18' W 122°26'0 0.0
2017-Oct-18 18:27N 47°18' W 122°26'0 0.0
2017-Oct-18 18:00N 47°18' W 122°26'0 0.0
2017-Oct-18 17:24N 47°18' W 122°26'0 0.0
2017-Oct-18 16:54N 47°18' W 122°26'0 0.0
2017-Oct-18 16:18N 47°18' W 122°26'0 0.0
2017-Oct-18 15:54N 47°18' W 122°26'0 0.0
2017-Oct-18 15:30N 47°18' W 122°26'0 0.0
2017-Oct-18 14:54N 47°18' W 122°26'0 0.0
2017-Oct-18 14:00N 47°18' W 122°26'4 7.2
2017-Oct-18 13:30N 47°21' W 122°24'4 8.6
2017-Oct-18 13:00N 47°25' W 122°24'510.5
2017-Oct-18 12:30N 47°31' W 122°26'510.0
2017-Oct-18 12:00N 47°35' W 122°25'3 6.5
2017-Oct-18 11:30N 47°34' W 122°21'1 2.1
2017-Oct-18 11:00N 47°33' W 122°20'1 1.3
2017-Oct-18 10:30N 47°34' W 122°21'1 2.2
2017-Oct-18 10:00N 47°35' W 122°22'1 2.1
2017-Oct-18 09:30N 47°36' W 122°22'0 1.0
2017-Oct-18 09:00N 47°36' W 122°22'1 1.7
2017-Oct-18 08:30N 47°36' W 122°21'2 4.2
2017-Oct-18 08:00N 47°38' W 122°23'0 0.0
2017-Oct-18 07:29N 47°38' W 122°23'0 0.0
2017-Oct-18 06:59N 47°38' W 122°23'0 0.0
2017-Oct-18 06:29N 47°38' W 122°23'0 0.0
2017-Oct-18 05:59N 47°38' W 122°23'0 0.0
2017-Oct-18 05:29N 47°38' W 122°23'0 0.0
2017-Oct-18 04:59N 47°38' W 122°23'0 0.0
2017-Oct-18 04:29N 47°38' W 122°23'0 0.0
2017-Oct-18 03:59N 47°38' W 122°23'0 0.0
2017-Oct-18 03:29N 47°38' W 122°23'0 0.0
2017-Oct-18 02:59N 47°38' W 122°23'0 0.0
2017-Oct-18 02:29N 47°38' W 122°23'0 0.0
2017-Oct-18 01:59N 47°38' W 122°23'0 0.0
2017-Oct-18 01:29N 47°38' W 122°23'0 0.0
2017-Oct-18 00:59N 47°38' W 122°23'0 0.0
2017-Oct-18 00:29N 47°38' W 122°23'0 0.0
2017-Oct-17 23:59N 47°38' W 122°23'0 0.0
2017-Oct-17 23:29N 47°38' W 122°23'0 0.0
2017-Oct-17 23:00N 47°38' W 122°23'3 5.5
2017-Oct-17 22:30N 47°36' W 122°21'0 0.6
2017-Oct-17 22:00N 47°35' W 122°21'0 1.0
2017-Oct-17 21:31N 47°36' W 122°21'1 2.5
2017-Oct-17 21:00N 47°37' W 122°22'0 0.9
2017-Oct-17 20:30N 47°37' W 122°23'1 2.2
2017-Oct-17 20:00N 47°38' W 122°23'0 0.0
2017-Oct-17 19:30N 47°38' W 122°23'0 0.0
2017-Oct-17 19:00N 47°38' W 122°23'0 0.0
2017-Oct-17 18:30N 47°38' W 122°23'1 1.1
2017-Oct-17 18:00N 47°37' W 122°22'0 0.0
2017-Oct-17 17:30N 47°37' W 122°22'1 1.8
2017-Oct-17 17:00N 47°37' W 122°23'1 2.6
2017-Oct-17 16:30N 47°38' W 122°23'0 0.0
2017-Oct-17 16:00N 47°38' W 122°23'0 0.0
2017-Oct-17 15:30N 47°38' W 122°23'1 1.3
2017-Oct-17 15:00N 47°37' W 122°22'1 1.2
2017-Oct-17 14:29N 47°38' W 122°23'0 0.0
2017-Oct-17 13:58N 47°38' W 122°23'0 0.0
2017-Oct-17 13:28N 47°38' W 122°23'0 0.0
2017-Oct-17 12:58N 47°38' W 122°23'0 0.0
2017-Oct-17 12:28N 47°38' W 122°23'0 0.0
2017-Oct-17 12:01N 47°38' W 122°23'2 5.0
2017-Oct-17 11:31N 47°36' W 122°21'1 1.8
2017-Oct-17 11:01N 47°35' W 122°21'1 2.4
2017-Oct-17 10:31N 47°36' W 122°21'2 4.0
2017-Oct-17 09:58N 47°38' W 122°23'0 0.0
2017-Oct-17 09:28N 47°38' W 122°23'0 0.0
2017-Oct-17 08:58N 47°38' W 122°23'0 0.0
2017-Oct-17 08:28N 47°38' W 122°23'0 0.0
2017-Oct-17 07:58N 47°38' W 122°23'0 0.0
2017-Oct-17 07:28N 47°38' W 122°23'0 0.0
2017-Oct-17 06:59N 47°38' W 122°23'0 0.0
2017-Oct-17 06:28N 47°38' W 122°23'0 0.0
2017-Oct-17 05:59N 47°38' W 122°23'0 0.0
2017-Oct-17 05:28N 47°38' W 122°23'0 0.0
2017-Oct-17 04:58N 47°38' W 122°23'0 0.0
2017-Oct-17 04:28N 47°38' W 122°23'0 0.0
2017-Oct-17 03:58N 47°38' W 122°23'0 0.0
2017-Oct-17 03:16N 47°38' W 122°23'0 0.0
2017-Oct-17 02:58N 47°38' W 122°23'0 0.0
2017-Oct-17 02:28N 47°38' W 122°23'0 0.0
2017-Oct-17 01:58N 47°38' W 122°23'0 0.0
2017-Oct-17 01:29N 47°38' W 122°23'0 0.0
2017-Oct-17 00:58N 47°38' W 122°23'0 0.0
2017-Oct-17 00:28N 47°38' W 122°23'0 0.0
2017-Oct-16 23:58N 47°38' W 122°23'0 0.0
2017-Oct-16 23:30N 47°38' W 122°23'0 0.0
2017-Oct-16 22:58N 47°38' W 122°23'0 0.0
2017-Oct-16 22:28N 47°38' W 122°23'0 0.0
2017-Oct-16 21:59N 47°38' W 122°23'0 0.0
2017-Oct-16 21:28N 47°38' W 122°23'0 0.0
2017-Oct-16 21:00N 47°38' W 122°23'0 0.0
2017-Oct-16 20:29N 47°38' W 122°23'0 0.0
2017-Oct-16 19:58N 47°38' W 122°23'0 0.0
2017-Oct-16 19:28N 47°38' W 122°23'0 0.0
2017-Oct-16 18:58N 47°38' W 122°23'0 0.0
2017-Oct-16 18:29N 47°38' W 122°23'0 0.0
2017-Oct-16 17:58N 47°38' W 122°23'0 0.0
2017-Oct-16 17:28N 47°38' W 122°23'0 0.0
2017-Oct-16 16:58N 47°38' W 122°23'0 0.0
2017-Oct-16 16:28N 47°38' W 122°23'0 0.0
2017-Oct-16 15:58N 47°38' W 122°23'0 0.0
2017-Oct-16 15:28N 47°38' W 122°23'0 0.0
2017-Oct-16 14:58N 47°38' W 122°23'0 0.0
2017-Oct-16 14:28N 47°38' W 122°23'0 0.0
2017-Oct-16 13:30N 47°38' W 122°23'3 5.9
2017-Oct-16 13:00N 47°35' W 122°21'0 0.9
2017-Oct-16 12:30N 47°35' W 122°21'1 2.8
2017-Oct-16 12:01N 47°36' W 122°21'1 1.5
2017-Oct-16 11:30N 47°37' W 122°22'1 2.4
2017-Oct-16 10:58N 47°38' W 122°23'0 0.0
2017-Oct-16 10:28N 47°38' W 122°23'0 0.0
2017-Oct-16 09:58N 47°38' W 122°23'0 0.0
2017-Oct-16 09:28N 47°38' W 122°23'0 0.0
2017-Oct-16 09:00N 47°38' W 122°23'0 0.0
2017-Oct-16 08:29N 47°38' W 122°23'0 0.0
2017-Oct-16 07:59N 47°38' W 122°23'0 0.0
2017-Oct-16 07:29N 47°38' W 122°23'0 0.0
2017-Oct-16 06:58N 47°38' W 122°23'0 0.0
2017-Oct-16 06:28N 47°38' W 122°23'0 0.0
2017-Oct-16 05:58N 47°38' W 122°23'0 0.0
2017-Oct-16 05:30N 47°38' W 122°23'0 0.0
2017-Oct-16 04:58N 47°38' W 122°23'0 0.0
2017-Oct-16 04:28N 47°38' W 122°23'0 0.0
2017-Oct-16 03:59N 47°38' W 122°23'0 0.0
2017-Oct-16 03:28N 47°38' W 122°23'0 0.0
2017-Oct-16 02:59N 47°38' W 122°23'0 0.0
2017-Oct-16 02:28N 47°38' W 122°23'0 0.0
2017-Oct-16 01:58N 47°38' W 122°23'0 0.0
2017-Oct-16 01:28N 47°38' W 122°23'0 0.0
2017-Oct-16 00:58N 47°38' W 122°23'0 0.0
2017-Oct-16 00:28N 47°38' W 122°23'0 0.0
2017-Oct-15 23:58N 47°38' W 122°23'0 0.0
2017-Oct-15 23:29N 47°38' W 122°23'0 0.0
2017-Oct-15 22:59N 47°38' W 122°23'0 0.0
2017-Oct-15 22:29N 47°38' W 122°23'0 0.0
2017-Oct-15 21:59N 47°38' W 122°23'0 0.0
2017-Oct-15 21:28N 47°38' W 122°23'0 0.0
2017-Oct-15 20:58N 47°38' W 122°23'0 0.0
2017-Oct-15 20:28N 47°38' W 122°23'0 0.0
2017-Oct-15 19:58N 47°38' W 122°23'0 0.0
2017-Oct-15 19:28N 47°38' W 122°23'0 0.0
2017-Oct-15 18:58N 47°38' W 122°23'0 0.0
2017-Oct-15 18:28N 47°38' W 122°23'0 0.0
2017-Oct-15 17:58N 47°38' W 122°23'0 0.0
2017-Oct-15 17:28N 47°38' W 122°23'0 0.0
2017-Oct-15 16:58N 47°38' W 122°23'0 0.0
2017-Oct-15 16:28N 47°38' W 122°23'0 0.0
2017-Oct-15 15:58N 47°38' W 122°23'0 0.0
2017-Oct-15 15:28N 47°38' W 122°23'0 0.0
2017-Oct-15 14:59N 47°38' W 122°23'0 0.0
2017-Oct-15 14:01N 47°38' W 122°23'0 0.0
2017-Oct-15 13:31N 47°38' W 122°23'0 0.0
2017-Oct-15 13:01N 47°38' W 122°23'0 0.0
2017-Oct-15 12:30N 47°38' W 122°23'0 0.0
2017-Oct-15 12:01N 47°38' W 122°23'0 0.0
2017-Oct-15 11:30N 47°38' W 122°23'0 0.0
2017-Oct-15 11:01N 47°38' W 122°23'0 0.0
2017-Oct-15 10:31N 47°38' W 122°23'0 0.0
2017-Oct-15 10:01N 47°38' W 122°23'0 0.0
2017-Oct-15 09:31N 47°38' W 122°23'0 0.0
2017-Oct-15 09:01N 47°38' W 122°23'0 0.0
2017-Oct-15 08:31N 47°38' W 122°23'0 0.0
2017-Oct-15 08:01N 47°38' W 122°23'0 0.0
2017-Oct-15 07:30N 47°38' W 122°23'0 0.0
2017-Oct-15 07:01N 47°38' W 122°23'0 0.0
2017-Oct-15 06:31N 47°38' W 122°23'1 1.1
2017-Oct-15 06:01N 47°37' W 122°22'0 0.0
2017-Oct-15 05:30N 47°37' W 122°22'1 1.1
2017-Oct-15 05:01N 47°37' W 122°22'0 0.8
2017-Oct-15 04:30N 47°37' W 122°22'0 0.2
2017-Oct-15 04:00N 47°37' W 122°22'0 0.0
2017-Oct-15 03:31N 47°37' W 122°22'0 0.2
2017-Oct-15 03:01N 47°37' W 122°22'4 8.3
2017-Oct-15 02:31N 47°34' W 122°26'611.0
2017-Oct-15 02:01N 47°29' W 122°24'612.2
2017-Oct-15 01:31N 47°23' W 122°22'611.8
2017-Oct-15 01:00N 47°18' W 122°27'3 6.4
2017-Oct-15 00:31N 47°16' W 122°23'1 1.3
2017-Oct-15 00:00N 47°15' W 122°23'1 1.6
2017-Oct-14 23:31N 47°16' W 122°23'0 0.8
2017-Oct-14 23:01N 47°16' W 122°24'0 0.0
2017-Oct-14 22:31N 47°16' W 122°24'0 0.0
2017-Oct-14 22:01N 47°16' W 122°24'0 0.0
2017-Oct-14 21:31N 47°16' W 122°24'1 1.3
2017-Oct-14 21:00N 47°17' W 122°25'1 1.2
2017-Oct-14 20:30N 47°16' W 122°24'0 0.1
2017-Oct-14 20:00N 47°16' W 122°24'0 0.0
2017-Oct-14 19:30N 47°16' W 122°24'0 0.0
2017-Oct-14 19:00N 47°16' W 122°24'0 0.0
2017-Oct-14 18:31N 47°16' W 122°24'0 0.0
2017-Oct-14 18:01N 47°16' W 122°24'0 0.0
2017-Oct-14 17:30N 47°16' W 122°24'0 0.0
2017-Oct-14 17:00N 47°16' W 122°24'1 1.4
2017-Oct-14 16:30N 47°17' W 122°25'1 1.4
2017-Oct-14 16:01N 47°16' W 122°24'0 0.0
2017-Oct-14 15:28N 47°16' W 122°24'0 0.0
2017-Oct-14 14:58N 47°16' W 122°24'0 0.0
2017-Oct-14 14:28N 47°16' W 122°24'0 0.0
2017-Oct-14 13:58N 47°16' W 122°24'0 0.0
2017-Oct-14 13:28N 47°16' W 122°24'0 0.0
2017-Oct-14 12:58N 47°16' W 122°24'0 0.0
2017-Oct-14 12:28N 47°16' W 122°24'0 0.0
2017-Oct-14 11:58N 47°16' W 122°24'0 0.0
2017-Oct-14 11:28N 47°16' W 122°24'0 0.0
2017-Oct-14 10:58N 47°16' W 122°24'0 0.0
2017-Oct-14 10:28N 47°16' W 122°24'0 0.0
2017-Oct-14 09:58N 47°16' W 122°24'0 0.1
2017-Oct-14 09:31N 47°16' W 122°24'1 1.5
2017-Oct-14 09:00N 47°16' W 122°25'0 0.1
2017-Oct-14 08:30N 47°16' W 122°25'0 0.0
2017-Oct-14 08:00N 47°16' W 122°25'0 0.0
2017-Oct-14 07:30N 47°16' W 122°25'2 3.1
2017-Oct-14 07:00N 47°18' W 122°26'1 2.3
2017-Oct-14 06:30N 47°17' W 122°25'1 2.5
2017-Oct-14 06:00N 47°18' W 122°26'0 0.3
2017-Oct-14 05:23N 47°18' W 122°26'0 0.0
2017-Oct-14 04:53N 47°18' W 122°26'0 0.0
2017-Oct-14 04:29N 47°18' W 122°26'0 0.0
2017-Oct-14 04:00N 47°18' W 122°26'0 0.0
2017-Oct-14 03:30N 47°18' W 122°26'0 0.0
2017-Oct-14 02:59N 47°18' W 122°26'0 0.4
2017-Oct-14 02:31N 47°18' W 122°26'4 7.2
2017-Oct-14 02:00N 47°21' W 122°25'4 8.0
2017-Oct-14 01:30N 47°25' W 122°23'5 9.8
2017-Oct-14 01:01N 47°30' W 122°24'5 9.8
2017-Oct-14 00:30N 47°35' W 122°25'3 6.7
2017-Oct-14 00:00N 47°36' W 122°21'0 0.6
2017-Oct-13 23:28N 47°36' W 122°20'0 0.1
2017-Oct-13 23:01N 47°36' W 122°20'3 6.3
2017-Oct-13 22:31N 47°35' W 122°25'5 9.2
2017-Oct-13 22:01N 47°31' W 122°25'5 9.4
2017-Oct-13 21:31N 47°26' W 122°23'4 8.7
2017-Oct-13 21:00N 47°22' W 122°22'5 9.4
2017-Oct-13 20:31N 47°18' W 122°27'1 2.4
2017-Oct-13 20:00N 47°18' W 122°26'0 0.0
2017-Oct-13 19:30N 47°18' W 122°26'0 0.0
2017-Oct-13 19:01N 47°18' W 122°26'0 0.1
2017-Oct-13 18:31N 47°18' W 122°26'2 3.0
2017-Oct-13 18:00N 47°17' W 122°24'2 3.3
2017-Oct-13 17:31N 47°16' W 122°22'2 3.2
2017-Oct-13 17:00N 47°17' W 122°24'1 1.3
2017-Oct-13 16:31N 47°16' W 122°24'1 2.1
2017-Oct-13 16:01N 47°15' W 122°23'0 0.1
2017-Oct-13 15:31N 47°15' W 122°23'1 2.2
2017-Oct-13 14:59N 47°16' W 122°24'0 0.0
2017-Oct-13 14:29N 47°16' W 122°24'0 0.0
2017-Oct-13 13:59N 47°16' W 122°24'0 0.0
2017-Oct-13 13:29N 47°16' W 122°24'0 0.0
2017-Oct-13 12:59N 47°16' W 122°24'0 0.0
2017-Oct-13 12:29N 47°16' W 122°24'0 0.0
2017-Oct-13 11:59N 47°16' W 122°24'1 1.3
2017-Oct-13 11:30N 47°16' W 122°23'0 0.7
2017-Oct-13 11:00N 47°16' W 122°23'2 3.9
2017-Oct-13 10:30N 47°17' W 122°25'1 2.1
2017-Oct-13 10:00N 47°18' W 122°26'0 0.6
2017-Oct-13 09:30N 47°18' W 122°26'0 0.0
2017-Oct-13 09:00N 47°18' W 122°26'0 0.0
2017-Oct-13 08:30N 47°18' W 122°26'0 0.0
2017-Oct-13 08:00N 47°18' W 122°26'0 0.0
2017-Oct-13 07:30N 47°18' W 122°26'0 0.0
2017-Oct-13 07:00N 47°18' W 122°26'0 0.0
2017-Oct-13 06:30N 47°18' W 122°26'0 0.0
2017-Oct-13 06:00N 47°18' W 122°26'0 0.0
2017-Oct-13 05:30N 47°18' W 122°26'0 0.0
2017-Oct-13 05:00N 47°18' W 122°26'0 0.0
2017-Oct-13 04:30N 47°18' W 122°26'0 0.1
2017-Oct-13 04:01N 47°18' W 122°26'1 2.9
2017-Oct-13 03:31N 47°18' W 122°28'4 7.2
2017-Oct-13 03:00N 47°21' W 122°25'3 6.7
2017-Oct-13 02:30N 47°24' W 122°23'4 7.9
2017-Oct-13 02:00N 47°28' W 122°25'4 7.7
2017-Oct-13 01:30N 47°32' W 122°26'4 7.6
2017-Oct-13 01:00N 47°35' W 122°25'3 5.1
2017-Oct-13 00:30N 47°38' W 122°25'2 3.9
2017-Oct-13 00:00N 47°40' W 122°27'4 7.4
2017-Oct-12 23:30N 47°43' W 122°26'4 7.5
2017-Oct-12 23:00N 47°47' W 122°25'4 7.4
2017-Oct-12 22:30N 47°51' W 122°24'4 8.0
2017-Oct-12 22:00N 47°54' W 122°21'4 8.0
2017-Oct-12 21:30N 47°58' W 122°18'3 6.3
2017-Oct-12 21:00N 47°59' W 122°14'1 2.6
2017-Oct-12 20:29N 47°58' W 122°16'5 9.8
2017-Oct-12 20:00N 47°55' W 122°21'510.4
2017-Oct-12 19:30N 47°50' W 122°23'510.8
2017-Oct-12 19:00N 47°45' W 122°25'510.7
2017-Oct-12 18:30N 47°39' W 122°27'3 6.2
2017-Oct-12 18:00N 47°38' W 122°23'0 0.0
2017-Oct-12 17:30N 47°38' W 122°23'0 0.0
2017-Oct-12 16:59N 47°38' W 122°23'0 0.0
2017-Oct-12 16:30N 47°38' W 122°23'0 0.0
2017-Oct-12 16:00N 47°38' W 122°23'0 0.0
2017-Oct-12 15:30N 47°38' W 122°23'0 0.0
2017-Oct-12 15:00N 47°38' W 122°23'1 1.1
2017-Oct-12 14:30N 47°37' W 122°23'1 1.0
2017-Oct-12 13:59N 47°38' W 122°23'0 0.0
2017-Oct-12 13:29N 47°38' W 122°23'0 0.0
2017-Oct-12 12:58N 47°38' W 122°23'0 0.0
2017-Oct-12 12:28N 47°38' W 122°23'0 0.0
2017-Oct-12 11:59N 47°38' W 122°23'0 0.0
2017-Oct-12 11:29N 47°38' W 122°23'0 0.0
2017-Oct-12 10:58N 47°38' W 122°23'0 0.0
2017-Oct-12 10:29N 47°38' W 122°23'0 0.0
2017-Oct-12 09:58N 47°38' W 122°23'0 0.0
2017-Oct-12 09:29N 47°38' W 122°23'0 0.0
2017-Oct-12 08:58N 47°38' W 122°23'0 0.0
2017-Oct-12 08:29N 47°38' W 122°23'0 0.0
2017-Oct-12 07:59N 47°38' W 122°23'0 0.0
2017-Oct-12 07:28N 47°38' W 122°23'0 0.0
2017-Oct-12 06:58N 47°38' W 122°23'0 0.0
2017-Oct-12 06:29N 47°38' W 122°23'0 0.0
2017-Oct-12 05:59N 47°38' W 122°23'0 0.0
2017-Oct-12 05:29N 47°38' W 122°23'0 0.0
2017-Oct-12 04:58N 47°38' W 122°23'0 0.0
2017-Oct-12 04:28N 47°38' W 122°23'0 0.0
2017-Oct-12 03:59N 47°38' W 122°23'0 0.0
2017-Oct-12 03:29N 47°38' W 122°23'0 0.0
2017-Oct-12 02:59N 47°38' W 122°23'2 3.3
2017-Oct-12 02:30N 47°38' W 122°25'3 5.2
2017-Oct-12 02:01N 47°41' W 122°25'1 2.5
2017-Oct-12 01:30N 47°40' W 122°23'1 2.0
2017-Oct-12 01:01N 47°39' W 122°22'0 0.0
2017-Oct-12 00:30N 47°39' W 122°22'0 0.0
2017-Oct-12 00:00N 47°39' W 122°22'0 0.0
2017-Oct-11 23:30N 47°39' W 122°22'0 0.1
2017-Oct-11 23:00N 47°39' W 122°22'0 0.1
2017-Oct-11 22:30N 47°39' W 122°22'0 0.0
2017-Oct-11 22:00N 47°39' W 122°22'0 0.0
2017-Oct-11 21:30N 47°39' W 122°22'0 0.0
2017-Oct-11 21:00N 47°39' W 122°22'0 0.0
2017-Oct-11 20:30N 47°39' W 122°22'0 0.1
2017-Oct-11 20:00N 47°39' W 122°22'0 0.1
2017-Oct-11 19:30N 47°39' W 122°22'0 0.0
2017-Oct-11 19:00N 47°39' W 122°22'0 0.0
2017-Oct-11 18:30N 47°39' W 122°22'0 0.0
2017-Oct-11 18:00N 47°39' W 122°22'0 0.0
2017-Oct-11 17:30N 47°39' W 122°22'0 0.0
2017-Oct-11 17:00N 47°39' W 122°22'0 0.0
2017-Oct-11 00:00N 47°39' W 122°22'0 0.0
2017-Oct-10 23:30N 47°39' W 122°22'0 0.1
2017-Oct-10 23:00N 47°39' W 122°22'0 0.1
2017-Oct-10 22:28N 47°39' W 122°22'0 0.0
2017-Oct-10 22:00N 47°39' W 122°22'0 0.0
2017-Oct-10 21:30N 47°39' W 122°22'0 0.0
2017-Oct-10 20:57N 47°39' W 122°22'0 0.1
2017-Oct-10 20:30N 47°39' W 122°22'0 0.1
2017-Oct-10 20:00N 47°39' W 122°22'0 0.0
2017-Oct-10 19:30N 47°39' W 122°22'0 0.1
2017-Oct-10 19:00N 47°39' W 122°22'0 0.1
2017-Oct-10 18:30N 47°39' W 122°22'0 0.0
2017-Oct-10 18:00N 47°39' W 122°22'0 0.0
2017-Oct-10 17:30N 47°39' W 122°22'0 0.0
2017-Oct-10 17:00N 47°39' W 122°22'0 0.1
2017-Oct-10 16:30N 47°39' W 122°22'0 0.1
2017-Oct-10 16:00N 47°39' W 122°22'0 0.0
2017-Oct-10 15:30N 47°39' W 122°22'0 0.0
2017-Oct-10 15:00N 47°39' W 122°22'0 0.0
2017-Oct-10 14:00N 47°39' W 122°22'0 0.0
2017-Oct-10 13:30N 47°39' W 122°22'0 0.0
2017-Oct-10 13:00N 47°39' W 122°22'0 0.0
2017-Oct-10 12:30N 47°39' W 122°22'0 0.1
2017-Oct-10 12:00N 47°39' W 122°22'0 0.0
2017-Oct-10 11:30N 47°39' W 122°22'0 0.0
2017-Oct-10 11:00N 47°39' W 122°22'0 0.1
2017-Oct-10 10:30N 47°39' W 122°22'0 0.0
2017-Oct-10 10:00N 47°39' W 122°22'0 0.0
2017-Oct-10 09:30N 47°39' W 122°22'0 0.1
2017-Oct-10 09:00N 47°39' W 122°22'0 0.0
2017-Oct-10 08:30N 47°39' W 122°22'0 0.0
2017-Oct-10 08:00N 47°39' W 122°22'0 0.0
2017-Oct-10 07:30N 47°39' W 122°22'0 0.0
2017-Oct-10 06:57N 47°39' W 122°22'0 0.1
2017-Oct-10 06:30N 47°39' W 122°22'0 0.0
2017-Oct-10 06:00N 47°39' W 122°22'0 0.0
2017-Oct-10 05:30N 47°39' W 122°22'0 0.0
2017-Oct-10 05:00N 47°39' W 122°22'0 0.0
2017-Oct-10 04:30N 47°39' W 122°22'0 0.0
2017-Oct-10 04:00N 47°39' W 122°22'0 0.0
2017-Oct-10 03:30N 47°39' W 122°22'0 0.0
2017-Oct-10 03:00N 47°39' W 122°22'0 0.0
2017-Oct-10 02:30N 47°39' W 122°22'0 0.0
2017-Oct-10 02:00N 47°39' W 122°22'0 0.0
2017-Oct-10 01:30N 47°39' W 122°22'0 0.0
2017-Oct-10 00:57N 47°39' W 122°22'0 0.0
2017-Oct-10 00:30N 47°39' W 122°22'0 0.1
2017-Oct-10 00:00N 47°39' W 122°22'0 0.0
2017-Oct-09 23:30N 47°39' W 122°22'0 0.0
2017-Oct-09 23:00N 47°39' W 122°22'0 0.1
2017-Oct-09 22:30N 47°39' W 122°22'0 0.0
2017-Oct-09 22:00N 47°39' W 122°22'0 0.0
2017-Oct-09 21:30N 47°39' W 122°22'0 0.0
2017-Oct-09 20:58N 47°39' W 122°22'0 0.0
2017-Oct-09 20:30N 47°39' W 122°22'0 0.0
2017-Oct-09 20:00N 47°39' W 122°22'0 0.0
2017-Oct-09 19:27N 47°39' W 122°22'0 0.1
2017-Oct-09 19:00N 47°39' W 122°22'0 0.1
2017-Oct-09 18:30N 47°39' W 122°22'0 0.0
2017-Oct-09 18:00N 47°39' W 122°22'0 0.1
2017-Oct-09 17:30N 47°39' W 122°22'0 0.1
2017-Oct-09 17:00N 47°39' W 122°22'  

Dump ship's entire track history